Time;durP1;ratioP1;P1;durP2;ratioP2;P2;SDS_P1;SDS_P2;PMS_P1;PMS_P2;Temp;Humidity;BMP_temperature;BMP_pressure;BME280_temperature;BME280_humidity;BME280_pressure;Samples;Min_cycle;Max_cycle;Signal;HPM_P1;HPM_P2
2023/03/24 09:02:10;;;;;;;15.25;3.00;;;19.50;66.50;;;;;;4904370;28;86269;-70
2023/03/24 09:04:36;;;;;;;12.52;3.05;;;19.30;65.00;;;;;;4890592;28;86353;-71
2023/03/24 09:33:46;;;;;;;;;;;20.60;63.90;;;;;;5018705;27;86598;-70
2023/03/24 09:36:11;;;;;;;;;;;20.80;61.20;;;;;;5033531;27;86269;-67
2023/03/24 09:38:37;;;;;;;;;;;21.10;65.60;;;;;;5012749;28;86546;-63
2023/03/24 09:42:30;;;;;;;20.95;5.75;;;21.60;59.00;;;;;;5058502;27;86159;-61
2023/03/24 09:44:58;;;;;;;21.80;6.47;;;21.40;58.60;;;;;;4987563;28;86221;-61
2023/03/24 09:57:30;;;;;;;15.32;4.80;;;21.60;57.70;;;;;;4938836;27;86941;-64
2023/03/24 10:34:52;;;;;;;11.43;2.95;;;14.90;63.10;;;;;;5025662;27;86099;-81
2023/03/24 10:37:19;;;;;;;15.32;2.60;;;15.10;64.30;;;;;;5027212;27;86160;-81
2023/03/24 10:39:46;;;;;;;8.80;2.00;;;15.00;64.20;;;;;;4974572;28;85988;-81
2023/03/24 10:42:20;;;;;;;12.75;2.42;;;15.00;62.90;;;;;;5025200;28;86653;-81
2023/03/24 10:44:49;;;;;;;12.40;1.50;;;14.90;63.90;;;;;;4804859;28;1616696;-81
2023/03/24 10:47:17;;;;;;;17.08;2.22;;;14.80;64.70;;;;;;5002476;28;86116;-81
2023/03/24 10:49:56;;;;;;;15.05;2.20;;;14.80;65.10;;;;;;5031029;28;85929;-81
2023/03/24 10:52:23;;;;;;;11.23;2.75;;;14.80;65.80;;;;;;5024716;28;86030;-81
2023/03/24 11:02:27;;;;;;;10.95;2.00;;;15.10;63.90;;;;;;5000813;28;85460;-83
2023/03/24 11:05:43;;;;;;;9.35;1.55;;;15.40;65.40;;;;;;4964010;28;85401;-82
2023/03/24 11:09:17;;;;;;;12.25;1.65;;;15.40;62.50;;;;;;4908484;28;84962;-83
2023/03/24 11:12:50;;;;;;;11.40;1.35;;;15.50;63.00;;;;;;4811083;29;86026;-83
2023/03/24 11:15:36;;;;;;;11.07;1.57;;;15.50;61.80;;;;;;4790706;29;85767;-82
2023/03/24 11:18:21;;;;;;;8.43;1.50;;;15.60;62.20;;;;;;4732593;29;89029;-82
2023/03/24 11:21:14;;;;;;;10.15;1.42;;;15.70;62.80;;;;;;4728675;29;85959;-81
2023/03/24 11:27:23;;;;;;;12.05;1.40;;;15.90;59.90;;;;;;4727802;29;85762;-82
2023/03/24 11:30:21;;;;;;;11.65;2.22;;;15.80;61.90;;;;;;4684171;30;86700;-83
2023/03/24 12:05:47;;;;;;;11.00;1.23;;;15.70;61.50;;;;;;5500642;24;87340;-79
2023/03/24 12:08:37;;;;;;;7.00;1.05;;;15.70;60.00;;;;;;4699166;29;86469;-80
2023/03/24 12:11:34;;;;;;;7.68;1.02;;;15.40;60.60;;;;;;4743633;29;97768;-81
2023/03/24 12:14:03;;;;;;;10.50;1.98;;;15.30;61.40;;;;;;4789969;29;87283;-80
2023/03/24 12:17:06;;;;;;;8.80;1.33;;;15.10;61.20;;;;;;4704431;29;86649;-80
2023/03/24 12:19:38;;;;;;;8.55;1.10;;;15.40;60.60;;;;;;4788670;29;86238;-80
2023/03/24 12:22:35;;;;;;;6.93;1.10;;;15.70;61.40;;;;;;4740489;29;89091;-80
2023/03/24 12:25:19;;;;;;;9.85;1.30;;;15.80;57.10;;;;;;4787870;29;86853;-80
2023/03/24 12:27:53;;;;;;;7.43;1.00;;;15.80;58.80;;;;;;4788837;29;86831;-77
2023/03/24 12:30:34;;;;;;;10.38;1.23;;;16.10;58.00;;;;;;4793452;29;86956;-78
2023/03/24 12:33:18;;;;;;;3.80;0.82;;;16.40;58.50;;;;;;4797275;29;89921;-78
2023/03/24 12:36:08;;;;;;;11.20;1.92;;;16.60;57.10;;;;;;4793799;29;86455;-79
2023/03/24 12:38:45;;;;;;;3.85;0.65;;;16.80;57.00;;;;;;4727603;29;86685;-79
2023/03/24 12:41:40;;;;;;;8.05;1.40;;;16.60;57.00;;;;;;4784455;29;87081;-78
2023/03/24 12:44:26;;;;;;;8.60;1.05;;;16.20;58.50;;;;;;4789440;29;86336;-78
2023/03/24 12:46:55;;;;;;;4.57;0.80;;;16.10;57.60;;;;;;4791452;29;86406;-77
2023/03/24 12:49:33;;;;;;;5.55;1.17;;;16.00;58.50;;;;;;4801865;29;86618;-79
2023/03/24 12:52:18;;;;;;;5.45;0.85;;;16.20;58.40;;;;;;4797715;29;86559;-79
2023/03/24 12:55:05;;;;;;;9.60;1.15;;;16.20;57.20;;;;;;4796709;29;86997;-79
2023/03/24 12:57:43;;;;;;;6.80;1.05;;;15.80;58.40;;;;;;4797091;29;86684;-79
2023/03/24 13:00:21;;;;;;;10.05;1.58;;;15.50;60.00;;;;;;4797787;29;86532;-79
2023/03/24 13:03:14;;;;;;;11.40;2.95;;;15.10;61.50;;;;;;4787710;29;89856;-79
2023/03/24 13:05:51;;;;;;;8.97;1.40;;;14.80;63.60;;;;;;4800654;29;87606;-79
2023/03/24 13:08:28;;;;;;;10.00;1.85;;;14.50;67.20;;;;;;4808880;29;86395;-79
2023/03/24 13:11:08;;;;;;;12.25;1.20;;;14.40;69.30;;;;;;4807516;29;86333;-79
2023/03/24 13:14:15;;;;;;;6.68;1.52;;;14.60;68.60;;;;;;4805307;29;86374;-79
2023/03/24 13:16:45;;;;;;;7.20;1.10;;;14.60;67.30;;;;;;4809707;29;87249;-79
2023/03/24 13:19:23;;;;;;;6.13;1.10;;;14.50;66.90;;;;;;4804812;29;86142;-79
2023/03/24 13:21:51;;;;;;;4.38;1.10;;;14.70;67.10;;;;;;4808175;29;86259;-81
2023/03/24 13:24:18;;;;;;;7.53;1.20;;;15.20;66.00;;;;;;4806214;29;86290;-79
2023/03/24 13:27:01;;;;;;;8.85;1.35;;;15.40;65.20;;;;;;4808985;29;86551;-79
2023/03/24 13:30:22;;;;;;;5.15;1.00;;;15.80;63.30;;;;;;4809865;29;86401;-79
2023/03/24 13:33:04;;;;;;;7.78;1.45;;;16.50;61.30;;;;;;4772011;29;86121;-79
2023/03/24 13:36:10;;;;;;;7.90;0.93;;;16.90;58.20;;;;;;4772298;29;86626;-79
2023/03/24 13:38:45;;;;;;;14.45;2.22;;;17.10;57.30;;;;;;4764898;29;86501;-79
2023/03/24 13:41:17;;;;;;;5.13;0.90;;;17.10;57.60;;;;;;4752968;29;86158;-79
2023/03/24 13:44:01;;;;;;;6.93;1.30;;;17.20;55.90;;;;;;4768940;29;86450;-79
2023/03/24 13:46:27;;;;;;;;;;;17.20;56.40;;;;;;4766873;29;88448;-79
2023/03/24 13:48:57;;;;;;;8.82;1.38;;;17.30;53.80;;;;;;4775354;29;86433;-80
2023/03/24 13:51:45;;;;;;;6.07;1.00;;;17.40;56.00;;;;;;4777914;29;86069;-80
2023/03/24 13:54:21;;;;;;;6.20;0.75;;;17.30;55.30;;;;;;4762776;29;86521;-80
2023/03/24 13:57:13;;;;;;;5.25;1.10;;;16.90;55.40;;;;;;4765206;29;88498;-80
2023/03/24 14:00:14;;;;;;;8.30;1.48;;;16.50;57.40;;;;;;4762093;29;86770;-80
2023/03/24 14:02:51;;;;;;;7.72;1.27;;;16.30;58.70;;;;;;4768549;29;86418;-80
2023/03/24 14:05:41;;;;;;;9.82;1.40;;;16.00;57.90;;;;;;4789689;29;85803;-80
2023/03/24 14:08:07;;;;;;;9.95;1.88;;;15.80;59.30;;;;;;4795415;29;88946;-80
2023/03/24 14:10:45;;;;;;;5.90;1.13;;;15.60;58.70;;;;;;4785504;29;90112;-80
2023/03/24 14:13:10;;;;;;;9.55;0.60;;;15.30;57.00;;;;;;4789275;29;86663;-80
2023/03/24 14:15:45;;;;;;;5.75;0.88;;;15.10;56.70;;;;;;4792257;29;86668;-80
2023/03/24 14:18:35;;;;;;;17.17;1.95;;;14.90;58.70;;;;;;4791887;29;86609;-80
2023/03/24 14:21:33;;;;;;;5.43;0.77;;;14.20;69.60;;;;;;4769877;29;85866;-80
2023/03/24 14:24:02;;;;;;;5.80;0.80;;;13.10;75.70;;;;;;4745236;29;85952;-80
2023/03/24 14:26:35;;;;;;;3.30;0.90;;;12.50;76.90;;;;;;4755131;29;86365;-80
2023/03/24 14:29:01;;;;;;;6.45;0.88;;;12.30;78.90;;;;;;4707847;29;88743;-80
2023/03/24 14:31:36;;;;;;;7.30;0.70;;;12.10;80.10;;;;;;4706815;29;85955;-81
2023/03/24 14:34:20;;;;;;;3.53;0.60;;;12.00;80.20;;;;;;4732755;29;86354;-81
2023/03/24 14:36:58;;;;;;;6.20;1.00;;;12.00;79.30;;;;;;4726540;29;85946;-80
2023/03/24 14:39:30;;;;;;;3.92;0.80;;;11.90;80.40;;;;;;4721251;29;87598;-80
2023/03/24 14:41:57;;;;;;;11.63;2.95;;;11.80;81.00;;;;;;4723379;29;87001;-80
2023/03/24 14:44:52;;;;;;;8.13;1.08;;;11.70;81.30;;;;;;4727808;29;86342;-81
2023/03/24 14:47:39;;;;;;;7.05;0.98;;;11.60;82.00;;;;;;4732552;29;85969;-81
2023/03/24 14:51:35;;;;;;;4.60;1.17;;;11.50;81.90;;;;;;4737221;29;86608;-81
2023/03/24 14:54:15;;;;;;;6.20;0.73;;;11.20;82.80;;;;;;4621279;30;87212;-82
2023/03/24 14:57:27;;;;;;;9.55;0.75;;;10.90;84.00;;;;;;4622286;30;85213;-81
2023/03/24 15:00:28;;;;;;;5.65;1.13;;;10.70;86.20;;;;;;4591920;30;86149;-81
2023/03/24 15:03:48;;;;;;;6.82;1.50;;;10.60;88.20;;;;;;4590560;30;86105;-81
2023/03/24 15:09:04;;;;;;;7.63;1.67;;;11.30;87.00;;;;;;5414235;24;87321;-80
2023/03/24 15:11:36;;;;;;;4.63;0.90;;;11.40;87.50;;;;;;4732328;29;86243;-80
2023/03/24 15:14:26;;;;;;;3.08;0.70;;;11.50;84.50;;;;;;4751951;29;90014;-80
2023/03/24 15:17:17;;;;;;;8.00;0.68;;;11.60;84.90;;;;;;4746980;29;86117;-80
2023/03/24 15:19:42;;;;;;;2.85;0.60;;;12.10;85.30;;;;;;4750326;29;86332;-80
2023/03/24 15:32:18;;;;;;;3.97;0.70;;;15.10;69.80;;;;;;4750570;29;86022;-80
2023/03/24 15:34:56;;;;;;;3.58;1.00;;;14.70;72.50;;;;;;4755006;29;85701;-80
2023/03/24 15:37:47;;;;;;;3.95;1.30;;;14.10;72.80;;;;;;4754015;29;86175;-80
2023/03/24 15:40:25;;;;;;;4.53;0.80;;;14.00;74.40;;;;;;4777677;24;90075;-79
2023/03/24 15:42:52;;;;;;;5.78;0.90;;;14.40;73.60;;;;;;4748353;29;87014;-79
2023/03/24 15:45:29;;;;;;;5.13;0.90;;;15.20;70.10;;;;;;4755077;29;86550;-80
2023/03/24 15:47:55;;;;;;;7.15;1.20;;;15.70;68.50;;;;;;4742230;29;88407;-80
2023/03/24 15:51:01;;;;;;;4.45;1.00;;;16.20;66.30;;;;;;4747916;29;86722;-78
2023/03/24 15:53:42;;;;;;;4.75;1.20;;;16.40;63.50;;;;;;4746825;29;86227;-79
2023/03/24 15:56:16;;;;;;;5.75;0.95;;;16.70;63.30;;;;;;4729436;29;86554;-79
2023/03/24 15:58:47;;;;;;;4.32;1.20;;;16.90;62.10;;;;;;4744458;29;87675;-79
2023/03/24 16:01:16;;;;;;;6.82;1.08;;;17.50;61.30;;;;;;4736227;29;88853;-79
2023/03/24 16:03:47;;;;;;;6.70;0.98;;;17.50;59.10;;;;;;4744960;29;85863;-79
2023/03/24 16:06:15;;;;;;;5.05;0.90;;;17.40;61.10;;;;;;4745027;29;86337;-79
2023/03/24 16:08:42;;;;;;;4.93;0.93;;;17.80;59.20;;;;;;4747206;29;89618;-79
2023/03/24 16:11:11;;;;;;;5.43;0.90;;;18.30;58.90;;;;;;4752101;29;86999;-80
2023/03/24 16:13:39;;;;;;;3.85;0.80;;;18.80;56.40;;;;;;4760875;29;86104;-80
2023/03/24 16:16:13;;;;;;;4.82;0.68;;;18.90;57.10;;;;;;4756500;29;87934;-80
2023/03/24 16:18:47;;;;;;;4.43;0.70;;;18.90;54.40;;;;;;4755801;29;86963;-80
2023/03/24 16:21:19;;;;;;;5.18;0.85;;;18.60;56.00;;;;;;4762349;29;89259;-80
2023/03/24 16:23:48;;;;;;;4.45;0.73;;;18.60;56.10;;;;;;4766363;29;86368;-80
2023/03/24 16:26:29;;;;;;;3.25;0.77;;;18.90;57.30;;;;;;4748126;29;85646;-81
2023/03/24 16:29:15;;;;;;;2.05;0.60;;;18.50;55.80;;;;;;4759971;29;86819;-81
2023/03/24 16:31:41;;;;;;;2.42;0.50;;;17.60;57.20;;;;;;4766080;29;86071;-80
2023/03/24 16:34:06;;;;;;;6.57;0.77;;;17.40;57.70;;;;;;4767159;29;85616;-80
2023/03/24 16:36:33;;;;;;;4.65;0.70;;;17.50;57.30;;;;;;4742336;29;86226;-80
2023/03/24 16:39:15;;;;;;;5.10;0.52;;;17.30;58.50;;;;;;4760068;29;86738;-80
2023/03/24 16:41:42;;;;;;;1.52;0.43;;;16.60;59.20;;;;;;4759448;29;88731;-81
2023/03/24 16:44:08;;;;;;;2.60;0.70;;;16.00;62.30;;;;;;4739403;29;85990;-79
2023/03/24 16:46:35;;;;;;;3.30;1.00;;;15.50;63.60;;;;;;4731311;29;86477;-80
2023/03/24 16:49:05;;;;;;;6.43;0.80;;;15.10;65.80;;;;;;4729478;29;87952;-80
2023/03/24 16:51:31;;;;;;;3.60;0.90;;;14.70;66.30;;;;;;4662521;29;86885;-80
2023/03/24 16:54:04;;;;;;;2.80;0.65;;;14.40;67.60;;;;;;4730504;29;86477;-80
2023/03/24 16:56:29;;;;;;;5.10;0.90;;;14.10;68.50;;;;;;4730364;29;86608;-80
2023/03/24 16:58:56;;;;;;;3.90;0.77;;;13.90;69.30;;;;;;4729211;29;87705;-80
2023/03/24 17:01:34;;;;;;;5.32;0.77;;;13.80;70.50;;;;;;4729890;29;86828;-80
2023/03/24 17:04:09;;;;;;;4.68;1.02;;;13.60;71.10;;;;;;4726537;29;86317;-80
2023/03/24 17:06:37;;;;;;;5.13;1.45;;;13.40;71.80;;;;;;4727640;29;86486;-80
2023/03/24 17:09:05;;;;;;;5.95;1.08;;;13.30;72.40;;;;;;4729461;29;86570;-80
2023/03/24 17:11:35;;;;;;;5.65;0.82;;;13.10;72.20;;;;;;4727655;29;89778;-80
2023/03/24 17:14:03;;;;;;;3.75;1.02;;;13.00;73.20;;;;;;4728555;29;86333;-80
2023/03/24 17:16:35;;;;;;;7.70;1.23;;;12.90;73.20;;;;;;4727879;29;86575;-80
2023/03/24 17:19:04;;;;;;;6.28;1.10;;;12.80;73.60;;;;;;4729122;29;87913;-80
2023/03/24 17:21:32;;;;;;;5.82;1.25;;;12.70;74.20;;;;;;4727840;29;85929;-80
2023/03/24 17:23:58;;;;;;;4.75;0.60;;;12.60;74.00;;;;;;4728626;29;86400;-80
2023/03/24 17:26:24;;;;;;;6.30;0.90;;;12.50;74.70;;;;;;4738150;29;86228;-80
2023/03/24 17:28:50;;;;;;;3.53;0.80;;;12.40;74.00;;;;;;4749198;29;86516;-80
2023/03/24 17:31:16;;;;;;;5.78;0.60;;;12.40;74.40;;;;;;4747405;29;86428;-80
2023/03/24 17:33:42;;;;;;;4.20;0.68;;;12.30;73.60;;;;;;4747199;29;86846;-80
2023/03/24 17:36:13;;;;;;;6.10;1.02;;;12.30;72.50;;;;;;4734661;29;86478;-80
2023/03/24 17:42:00;;;;;;;4.25;0.90;;;12.40;72.00;;;;;;4728893;29;86229;-80
2023/03/24 17:44:27;;;;;;;4.75;0.60;;;12.30;71.70;;;;;;4729968;29;87343;-80
2023/03/24 17:46:52;;;;;;;3.95;0.80;;;12.30;72.10;;;;;;4734520;29;86892;-80
2023/03/24 17:49:18;;;;;;;4.15;0.70;;;12.20;72.50;;;;;;4734915;29;86826;-80
2023/03/24 17:51:44;;;;;;;4.38;0.80;;;12.20;72.70;;;;;;4733129;29;85992;-80
2023/03/24 17:54:10;;;;;;;2.45;0.52;;;12.10;72.40;;;;;;4736011;29;86452;-80
2023/03/24 17:56:36;;;;;;;1.65;0.40;;;12.10;72.30;;;;;;4734235;29;86847;-80
2023/03/24 17:59:03;;;;;;;2.55;0.98;;;12.10;73.10;;;;;;4720241;29;88383;-80
2023/03/24 18:01:29;;;;;;;5.28;0.60;;;12.00;73.50;;;;;;4719333;29;88996;-80
2023/03/24 18:03:55;;;;;;;5.35;0.73;;;12.00;73.60;;;;;;4734013;29;86635;-79
2023/03/24 18:06:21;;;;;;;4.20;0.60;;;12.00;73.30;;;;;;4732963;29;86353;-79
2023/03/24 18:08:50;;;;;;;2.65;0.40;;;12.00;75.20;;;;;;4729182;29;88006;-80
2023/03/24 18:11:15;;;;;;;1.38;0.20;;;11.60;76.70;;;;;;4731345;29;86422;-80
2023/03/24 18:13:42;;;;;;;1.35;0.20;;;11.10;80.20;;;;;;4748953;29;86757;-80
2023/03/24 18:16:09;;;;;;;0.77;0.30;;;10.60;83.00;;;;;;4734153;29;86315;-80
2023/03/24 18:18:40;;;;;;;1.08;0.30;;;10.30;86.50;;;;;;4754742;29;88225;-80
2023/03/24 18:21:06;;;;;;;0.50;0.20;;;10.00;86.60;;;;;;4714908;29;87047;-80
2023/03/24 18:23:34;;;;;;;1.65;0.40;;;9.90;86.20;;;;;;4697189;29;86195;-81
2023/03/24 18:26:03;;;;;;;0.68;0.30;;;9.80;86.80;;;;;;4709214;29;86166;-81
2023/03/24 18:28:30;;;;;;;0.55;0.22;;;9.70;86.00;;;;;;4711814;29;88988;-80
2023/03/24 18:30:56;;;;;;;1.83;0.50;;;9.70;86.90;;;;;;4712368;29;86205;-80
2023/03/24 18:33:23;;;;;;;0.63;0.40;;;9.60;87.30;;;;;;4712943;29;86748;-80
2023/03/24 18:35:53;;;;;;;1.80;0.65;;;9.60;87.30;;;;;;4714847;29;86038;-80
2023/03/24 18:38:22;;;;;;;2.30;0.50;;;9.60;87.60;;;;;;4712370;29;89025;-80
2023/03/24 18:40:58;;;;;;;1.00;0.60;;;9.60;87.50;;;;;;4713744;29;86378;-80
2023/03/24 18:46:45;;;;;;;9.85;2.10;;;9.60;87.60;;;;;;4714230;29;85998;-80
2023/03/24 18:49:14;;;;;;;1.08;0.98;;;9.50;89.00;;;;;;4716416;29;88394;-81
2023/03/24 18:51:40;;;;;;;2.42;1.60;;;9.50;88.70;;;;;;4716289;29;88783;-80
2023/03/24 18:54:06;;;;;;;4.07;1.20;;;9.50;88.60;;;;;;4739487;29;85858;-80
2023/03/24 18:56:32;;;;;;;4.63;0.65;;;9.40;88.80;;;;;;4750468;29;86529;-80
2023/03/24 18:58:58;;;;;;;3.28;0.55;;;9.40;88.60;;;;;;4736270;29;87576;-80
2023/03/24 19:01:24;;;;;;;1.83;0.50;;;9.40;88.60;;;;;;4735017;29;86847;-80
2023/03/24 19:03:51;;;;;;;1.92;0.52;;;9.30;88.40;;;;;;4735932;29;86039;-81
2023/03/24 19:06:18;;;;;;;2.95;0.50;;;9.40;88.40;;;;;;4737436;29;86443;-80
2023/03/24 19:08:48;;;;;;;3.47;0.60;;;9.30;88.20;;;;;;4741128;29;87418;-80
2023/03/24 19:11:15;;;;;;;0.65;0.50;;;9.30;87.50;;;;;;4738777;29;89523;-80
2023/03/24 19:13:42;;;;;;;0.90;0.60;;;9.30;87.80;;;;;;4746773;29;86178;-80
2023/03/24 19:16:10;;;;;;;3.55;0.55;;;9.30;87.60;;;;;;4731727;29;86437;-80
2023/03/24 19:18:36;;;;;;;2.67;0.45;;;9.30;87.00;;;;;;4731653;29;86679;-80
2023/03/24 19:21:03;;;;;;;1.98;0.70;;;9.40;86.60;;;;;;4744439;29;89001;-80
2023/03/24 19:23:29;;;;;;;1.60;0.60;;;9.40;85.40;;;;;;4752285;29;86760;-81
2023/03/24 19:25:55;;;;;;;5.15;0.77;;;9.50;85.30;;;;;;4728829;29;87419;-80
2023/03/24 19:28:22;;;;;;;2.72;0.88;;;9.50;84.80;;;;;;4729394;29;86487;-80
2023/03/24 19:30:48;;;;;;;4.07;0.98;;;9.50;84.30;;;;;;4730027;29;86719;-80
2023/03/24 19:36:40;;;;;;;1.70;0.63;;;9.60;83.20;;;;;;4730964;29;86024;-80
2023/03/24 19:39:06;;;;;;;1.80;0.68;;;9.60;83.30;;;;;;4731482;29;87417;-80
2023/03/24 19:41:32;;;;;;;4.60;0.60;;;9.60;82.70;;;;;;4746097;29;87898;-80
2023/03/24 19:43:58;;;;;;;2.60;0.90;;;9.60;82.60;;;;;;4750780;29;86907;-80
2023/03/24 19:46:23;;;;;;;0.90;0.73;;;9.60;82.80;;;;;;4748255;29;86326;-80
2023/03/24 19:48:49;;;;;;;1.10;0.40;;;9.60;83.40;;;;;;4747954;29;87421;-80
2023/03/24 19:51:15;;;;;;;1.63;0.50;;;9.60;82.10;;;;;;4749427;29;86999;-80
2023/03/24 19:53:41;;;;;;;0.60;0.50;;;9.60;81.80;;;;;;4747169;29;86508;-80
2023/03/24 19:56:07;;;;;;;1.38;0.50;;;9.70;81.50;;;;;;4748680;29;86525;-80
2023/03/24 19:58:32;;;;;;;1.33;0.25;;;9.70;81.20;;;;;;4738719;29;89935;-79
2023/03/24 20:04:35;;;;;;;1.27;0.32;;;9.70;81.40;;;;;;4746057;29;86355;-80
2023/03/24 20:07:02;;;;;;;0.93;0.30;;;9.70;81.90;;;;;;4747442;29;86888;-80
2023/03/24 20:09:27;;;;;;;3.97;0.40;;;9.60;81.50;;;;;;4746542;29;87015;-80
2023/03/24 20:11:53;;;;;;;2.67;0.40;;;9.60;82.20;;;;;;4745580;29;89216;-79
2023/03/24 20:14:19;;;;;;;1.08;0.40;;;9.50;81.50;;;;;;4747444;29;86469;-79
2023/03/24 20:16:44;;;;;;;1.13;0.50;;;9.60;82.40;;;;;;4735010;29;86447;-79
2023/03/24 20:19:10;;;;;;;0.47;0.30;;;9.50;82.80;;;;;;4727510;29;89215;-80
2023/03/24 20:21:35;;;;;;;0.43;0.40;;;9.50;83.10;;;;;;4726635;29;88861;-80
2023/03/24 20:24:03;;;;;;;1.80;0.43;;;9.40;83.10;;;;;;4735905;29;86388;-79
2023/03/24 20:26:28;;;;;;;2.90;0.45;;;9.40;83.40;;;;;;4734843;29;86773;-80
2023/03/24 20:28:56;;;;;;;2.30;0.50;;;9.50;82.80;;;;;;4735375;29;87981;-80
2023/03/24 20:31:23;;;;;;;1.60;0.50;;;9.50;83.00;;;;;;4735090;29;86658;-80
2023/03/24 20:33:49;;;;;;;2.95;0.60;;;9.50;82.70;;;;;;4719810;29;87450;-80
2023/03/24 20:36:15;;;;;;;3.53;0.60;;;9.50;83.40;;;;;;4734147;29;86527;-79
2023/03/24 20:38:44;;;;;;;4.78;0.90;;;9.50;83.10;;;;;;4734838;29;87377;-79
2023/03/24 20:41:10;;;;;;;3.53;0.75;;;9.60;82.50;;;;;;4733954;29;87484;-80
2023/03/24 20:43:36;;;;;;;7.63;0.93;;;9.60;81.80;;;;;;4733767;29;86479;-79
2023/03/24 20:46:04;;;;;;;2.30;0.70;;;9.70;81.90;;;;;;4735083;29;86108;-79
2023/03/24 20:48:30;;;;;;;3.05;0.90;;;9.70;81.70;;;;;;4728286;29;89636;-80
2023/03/24 20:50:56;;;;;;;5.70;0.60;;;9.80;82.00;;;;;;4743645;29;86925;-80
2023/03/24 20:53:23;;;;;;;2.22;0.60;;;9.80;83.10;;;;;;4743566;29;86484;-80
2023/03/24 20:56:05;;;;;;;3.13;0.60;;;9.80;83.20;;;;;;4743107;29;86227;-80
2023/03/24 20:58:31;;;;;;;1.65;0.55;;;9.80;82.40;;;;;;4750579;29;89259;-79
2023/03/24 21:04:32;;;;;;;1.90;1.08;;;9.80;82.50;;;;;;4743915;29;85929;-79
2023/03/24 21:06:58;;;;;;;2.00;0.35;;;9.90;81.70;;;;;;4745543;29;86501;-80
2023/03/24 21:09:24;;;;;;;4.50;0.80;;;9.90;81.80;;;;;;4744290;29;87437;-79
2023/03/24 21:11:50;;;;;;;2.22;0.80;;;9.90;82.50;;;;;;4743986;29;86751;-79
2023/03/24 21:14:16;;;;;;;2.05;0.50;;;9.90;83.10;;;;;;4746008;29;86447;-79
2023/03/24 21:16:42;;;;;;;4.72;0.65;;;9.90;83.00;;;;;;4743679;29;86413;-79
2023/03/24 21:19:09;;;;;;;3.65;0.98;;;9.90;82.90;;;;;;4735935;29;90017;-79
2023/03/24 21:21:35;;;;;;;5.50;0.80;;;9.90;81.90;;;;;;4744218;29;87744;-79
2023/03/24 21:24:03;;;;;;;1.10;0.45;;;9.90;82.40;;;;;;4749429;29;87657;-80
2023/03/24 21:26:29;;;;;;;3.05;1.15;;;9.90;82.50;;;;;;4744811;29;86212;-79
2023/03/24 21:28:54;;;;;;;2.17;0.70;;;9.80;83.30;;;;;;4735195;29;90676;-79
2023/03/24 21:31:23;;;;;;;3.42;0.60;;;9.80;82.80;;;;;;4743543;29;86654;-79
2023/03/24 21:33:49;;;;;;;5.00;0.60;;;9.70;82.60;;;;;;4744268;29;86739;-80
2023/03/24 21:36:16;;;;;;;7.22;0.80;;;9.70;82.40;;;;;;4743888;29;86798;-79
2023/03/24 22:01:16;;;;;;;4.13;0.50;;;9.40;82.60;;;;;;4739071;29;86492;-79
2023/03/24 22:03:42;;;;;;;1.88;0.40;;;9.30;83.00;;;;;;4742677;29;86606;-79
2023/03/24 22:06:10;;;;;;;2.80;0.50;;;9.30;83.40;;;;;;4742331;29;88089;-79
2023/03/24 22:08:37;;;;;;;2.10;0.45;;;9.30;83.60;;;;;;4743397;29;86200;-79
2023/03/24 22:11:03;;;;;;;2.72;0.68;;;9.20;85.10;;;;;;4744633;29;85929;-79
2023/03/24 22:13:31;;;;;;;3.17;0.50;;;9.20;85.70;;;;;;4742461;29;86510;-79
2023/03/24 22:15:59;;;;;;;2.03;0.50;;;9.20;86.30;;;;;;4748005;29;90441;-79
2023/03/24 22:18:27;;;;;;;3.13;0.60;;;9.20;87.00;;;;;;4744691;29;86042;-79
2023/03/24 22:21:02;;;;;;;1.30;0.50;;;9.10;87.30;;;;;;4744377;29;86734;-79
2023/03/24 22:23:32;;;;;;;5.20;0.85;;;9.10;87.40;;;;;;4749838;29;86597;-79
2023/03/24 22:26:00;;;;;;;5.30;0.60;;;9.10;87.40;;;;;;4744257;29;87161;-79
2023/03/24 22:28:27;;;;;;;3.20;0.52;;;9.10;87.60;;;;;;4749271;29;88564;-79
2023/03/24 22:30:57;;;;;;;2.17;0.60;;;9.20;87.00;;;;;;4744889;29;86448;-79
2023/03/24 22:33:23;;;;;;;5.68;0.57;;;9.20;87.30;;;;;;4743249;29;86486;-79
2023/03/24 22:35:52;;;;;;;4.35;0.80;;;9.10;87.20;;;;;;4743886;29;87008;-79
2023/03/24 22:38:18;;;;;;;5.72;0.77;;;9.10;87.20;;;;;;4742919;29;86358;-79
2023/03/24 22:40:43;;;;;;;3.33;0.98;;;9.10;87.10;;;;;;4741260;29;86386;-79
2023/03/24 22:43:09;;;;;;;2.78;0.75;;;9.20;87.30;;;;;;4741022;29;86433;-79
2023/03/24 22:45:35;;;;;;;5.95;0.95;;;9.10;87.30;;;;;;4742709;29;87251;-79
2023/03/24 22:48:00;;;;;;;2.60;0.82;;;9.10;87.20;;;;;;4743809;29;86880;-79
2023/03/24 22:50:26;;;;;;;7.57;1.30;;;9.20;87.00;;;;;;4733721;29;86195;-79
2023/03/24 22:52:52;;;;;;;5.50;0.82;;;9.20;87.00;;;;;;4741907;29;87965;-79
2023/03/24 22:55:17;;;;;;;5.55;0.82;;;9.20;86.80;;;;;;4741689;29;87550;-79
2023/03/24 23:05:07;;;;;;;5.15;0.80;;;9.40;86.20;;;;;;4736398;29;88331;-80
2023/03/24 23:07:33;;;;;;;3.90;0.80;;;9.40;86.00;;;;;;4745021;29;89864;-79
2023/03/24 23:09:59;;;;;;;7.82;1.58;;;9.40;85.80;;;;;;4741877;29;88596;-79
2023/03/24 23:12:25;;;;;;;3.92;0.50;;;9.50;85.40;;;;;;4742646;29;86591;-79
2023/03/24 23:14:53;;;;;;;3.33;0.73;;;9.50;85.10;;;;;;4741569;29;86045;-79
2023/03/24 23:17:22;;;;;;;3.05;0.77;;;9.50;85.10;;;;;;4743286;29;88063;-79
2023/03/24 23:19:50;;;;;;;4.47;0.73;;;9.50;85.10;;;;;;4743209;29;87202;-79
2023/03/24 23:22:17;;;;;;;5.55;1.10;;;9.50;84.80;;;;;;4749603;29;85929;-79
2023/03/24 23:24:44;;;;;;;5.15;0.82;;;9.50;84.50;;;;;;4742670;29;86325;-79
2023/03/24 23:27:10;;;;;;;5.63;1.25;;;9.50;84.20;;;;;;4742612;29;87123;-79
2023/03/24 23:29:38;;;;;;;3.35;0.98;;;9.50;84.20;;;;;;4741944;29;86970;-79
2023/03/24 23:32:05;;;;;;;3.97;1.00;;;9.50;83.30;;;;;;4749526;29;86361;-79
2023/03/24 23:41:33;;;;;;;4.75;1.65;;;9.50;83.30;;;;;;4743287;29;86660;-79
2023/03/24 23:43:59;;;;;;;7.90;1.17;;;9.40;82.90;;;;;;4748227;29;86345;-79
2023/03/24 23:46:25;;;;;;;5.75;0.95;;;9.40;82.50;;;;;;4745276;29;86520;-79
2023/03/24 23:48:50;;;;;;;4.90;0.85;;;9.30;82.00;;;;;;4736520;29;89406;-79
2023/03/24 23:51:16;;;;;;;6.45;0.73;;;9.30;81.70;;;;;;4744969;29;86900;-79
2023/03/24 23:53:42;;;;;;;5.53;0.73;;;9.30;81.30;;;;;;4746008;29;86735;-79
2023/03/24 23:56:11;;;;;;;5.38;0.80;;;9.30;81.60;;;;;;4746914;29;85934;-79
2023/03/24 23:58:40;;;;;;;4.65;0.80;;;9.20;81.80;;;;;;4750796;29;90776;-79
